sensor_id;sensor_type;location;lat;lon;timestamp;P1;durP1;ratioP1;P2;durP2;ratioP2
23121;SDS011;11730;51.248;22.534;2024-03-22T00:01:51;24.48;;;12.73;;
23121;SDS011;11730;51.248;22.534;2024-03-22T00:04:18;27.75;;;13.98;;
23121;SDS011;11730;51.248;22.534;2024-03-22T00:06:46;28.67;;;15.43;;
23121;SDS011;11730;51.248;22.534;2024-03-22T00:09:13;24.70;;;13.40;;
23121;SDS011;11730;51.248;22.534;2024-03-22T00:11:40;33.08;;;17.33;;
23121;SDS011;11730;51.248;22.534;2024-03-22T00:14:07;28.38;;;12.20;;
23121;SDS011;11730;51.248;22.534;2024-03-22T00:16:34;29.13;;;15.30;;
23121;SDS011;11730;51.248;22.534;2024-03-22T00:19:00;31.13;;;16.48;;
23121;SDS011;11730;51.248;22.534;2024-03-22T00:21:27;26.13;;;13.45;;
23121;SDS011;11730;51.248;22.534;2024-03-22T00:23:53;30.40;;;16.48;;
23121;SDS011;11730;51.248;22.534;2024-03-22T00:26:20;21.70;;;10.88;;
23121;SDS011;11730;51.248;22.534;2024-03-22T00:28:46;31.80;;;15.15;;
23121;SDS011;11730;51.248;22.534;2024-03-22T00:31:12;24.75;;;9.98;;
23121;SDS011;11730;51.248;22.534;2024-03-22T00:33:39;28.20;;;15.98;;
23121;SDS011;11730;51.248;22.534;2024-03-22T00:36:05;37.33;;;17.50;;
23121;SDS011;11730;51.248;22.534;2024-03-22T00:38:31;30.92;;;17.30;;
23121;SDS011;11730;51.248;22.534;2024-03-22T00:40:58;18.27;;;11.23;;
23121;SDS011;11730;51.248;22.534;2024-03-22T00:43:24;28.95;;;16.10;;
23121;SDS011;11730;51.248;22.534;2024-03-22T00:45:50;29.23;;;16.30;;
23121;SDS011;11730;51.248;22.534;2024-03-22T00:48:16;32.78;;;17.88;;
23121;SDS011;11730;51.248;22.534;2024-03-22T00:50:43;26.85;;;11.75;;
23121;SDS011;11730;51.248;22.534;2024-03-22T00:53:09;31.48;;;17.02;;
23121;SDS011;11730;51.248;22.534;2024-03-22T00:55:37;34.80;;;18.00;;
23121;SDS011;11730;51.248;22.534;2024-03-22T00:58:03;29.38;;;17.17;;
23121;SDS011;11730;51.248;22.534;2024-03-22T01:00:29;30.02;;;16.85;;
23121;SDS011;11730;51.248;22.534;2024-03-22T01:02:55;29.52;;;16.63;;
23121;SDS011;11730;51.248;22.534;2024-03-22T01:05:21;31.80;;;18.00;;
23121;SDS011;11730;51.248;22.534;2024-03-22T01:07:48;29.23;;;17.40;;
23121;SDS011;11730;51.248;22.534;2024-03-22T01:10:14;30.25;;;15.93;;
23121;SDS011;11730;51.248;22.534;2024-03-22T01:12:40;31.50;;;17.77;;
23121;SDS011;11730;51.248;22.534;2024-03-22T01:15:07;21.45;;;12.63;;
23121;SDS011;11730;51.248;22.534;2024-03-22T01:17:34;31.27;;;17.75;;
23121;SDS011;11730;51.248;22.534;2024-03-22T01:20:01;34.85;;;18.02;;
23121;SDS011;11730;51.248;22.534;2024-03-22T01:22:27;34.55;;;19.08;;
23121;SDS011;11730;51.248;22.534;2024-03-22T01:24:53;36.55;;;17.90;;
23121;SDS011;11730;51.248;22.534;2024-03-22T01:27:20;35.30;;;18.13;;
23121;SDS011;11730;51.248;22.534;2024-03-22T01:29:46;34.25;;;17.10;;
23121;SDS011;11730;51.248;22.534;2024-03-22T01:32:13;32.65;;;17.63;;
23121;SDS011;11730;51.248;22.534;2024-03-22T01:34:39;38.97;;;19.88;;
23121;SDS011;11730;51.248;22.534;2024-03-22T01:37:05;31.88;;;17.98;;
23121;SDS011;11730;51.248;22.534;2024-03-22T01:39:31;31.85;;;18.60;;
23121;SDS011;11730;51.248;22.534;2024-03-22T01:41:57;38.58;;;19.25;;
23121;SDS011;11730;51.248;22.534;2024-03-22T01:44:31;34.25;;;18.27;;
23121;SDS011;11730;51.248;22.534;2024-03-22T01:46:58;34.20;;;19.42;;
23121;SDS011;11730;51.248;22.534;2024-03-22T01:49:27;39.30;;;17.88;;
23121;SDS011;11730;51.248;22.534;2024-03-22T01:51:54;37.35;;;18.20;;
23121;SDS011;11730;51.248;22.534;2024-03-22T01:54:20;28.63;;;15.80;;
23121;SDS011;11730;51.248;22.534;2024-03-22T01:56:47;32.70;;;18.63;;
23121;SDS011;11730;51.248;22.534;2024-03-22T01:59:13;33.42;;;18.20;;
23121;SDS011;11730;51.248;22.534;2024-03-22T02:01:39;36.53;;;19.48;;
23121;SDS011;11730;51.248;22.534;2024-03-22T02:04:06;33.92;;;18.88;;
23121;SDS011;11730;51.248;22.534;2024-03-22T02:06:32;23.35;;;14.15;;
23121;SDS011;11730;51.248;22.534;2024-03-22T02:08:58;35.72;;;19.35;;
23121;SDS011;11730;51.248;22.534;2024-03-22T02:11:25;35.30;;;18.17;;
23121;SDS011;11730;51.248;22.534;2024-03-22T02:13:52;35.78;;;18.85;;
23121;SDS011;11730;51.248;22.534;2024-03-22T02:16:18;37.13;;;19.48;;
23121;SDS011;11730;51.248;22.534;2024-03-22T02:18:44;40.33;;;19.52;;
23121;SDS011;11730;51.248;22.534;2024-03-22T02:21:10;33.13;;;19.42;;
23121;SDS011;11730;51.248;22.534;2024-03-22T02:23:36;37.38;;;19.80;;
23121;SDS011;11730;51.248;22.534;2024-03-22T02:26:04;36.42;;;20.02;;
23121;SDS011;11730;51.248;22.534;2024-03-22T02:28:31;33.10;;;19.42;;
23121;SDS011;11730;51.248;22.534;2024-03-22T02:30:58;35.35;;;20.50;;
23121;SDS011;11730;51.248;22.534;2024-03-22T02:33:25;38.53;;;17.60;;
23121;SDS011;11730;51.248;22.534;2024-03-22T02:35:51;33.60;;;19.58;;
23121;SDS011;11730;51.248;22.534;2024-03-22T02:38:18;31.25;;;15.38;;
23121;SDS011;11730;51.248;22.534;2024-03-22T02:40:45;30.45;;;15.27;;
23121;SDS011;11730;51.248;22.534;2024-03-22T02:43:12;35.42;;;19.20;;
23121;SDS011;11730;51.248;22.534;2024-03-22T02:45:38;36.15;;;17.92;;
23121;SDS011;11730;51.248;22.534;2024-03-22T02:48:04;29.30;;;17.17;;
23121;SDS011;11730;51.248;22.534;2024-03-22T02:50:34;33.88;;;18.58;;
23121;SDS011;11730;51.248;22.534;2024-03-22T02:53:03;34.20;;;19.75;;
23121;SDS011;11730;51.248;22.534;2024-03-22T02:55:30;23.35;;;11.80;;
23121;SDS011;11730;51.248;22.534;2024-03-22T02:58:02;41.45;;;20.25;;
23121;SDS011;11730;51.248;22.534;2024-03-22T03:00:28;34.35;;;19.00;;
23121;SDS011;11730;51.248;22.534;2024-03-22T03:02:55;34.60;;;18.92;;
23121;SDS011;11730;51.248;22.534;2024-03-22T03:05:21;36.53;;;18.92;;
23121;SDS011;11730;51.248;22.534;2024-03-22T03:07:49;33.90;;;20.20;;
23121;SDS011;11730;51.248;22.534;2024-03-22T03:10:16;34.30;;;19.20;;
23121;SDS011;11730;51.248;22.534;2024-03-22T03:12:42;38.17;;;20.85;;
23121;SDS011;11730;51.248;22.534;2024-03-22T03:15:08;34.05;;;18.55;;
23121;SDS011;11730;51.248;22.534;2024-03-22T03:17:34;40.53;;;20.50;;
23121;SDS011;11730;51.248;22.534;2024-03-22T03:20:00;39.17;;;20.35;;
23121;SDS011;11730;51.248;22.534;2024-03-22T03:22:27;35.42;;;19.42;;
23121;SDS011;11730;51.248;22.534;2024-03-22T03:24:53;39.03;;;21.65;;
23121;SDS011;11730;51.248;22.534;2024-03-22T03:27:19;33.53;;;21.00;;
23121;SDS011;11730;51.248;22.534;2024-03-22T03:29:45;42.42;;;21.17;;
23121;SDS011;11730;51.248;22.534;2024-03-22T03:32:12;37.25;;;19.55;;
23121;SDS011;11730;51.248;22.534;2024-03-22T03:34:38;38.20;;;20.30;;
23121;SDS011;11730;51.248;22.534;2024-03-22T03:37:04;38.58;;;19.48;;
23121;SDS011;11730;51.248;22.534;2024-03-22T03:39:30;38.67;;;19.95;;
23121;SDS011;11730;51.248;22.534;2024-03-22T03:41:56;40.58;;;20.75;;
23121;SDS011;11730;51.248;22.534;2024-03-22T03:44:23;34.53;;;20.17;;
23121;SDS011;11730;51.248;22.534;2024-03-22T03:46:48;35.45;;;19.17;;
23121;SDS011;11730;51.248;22.534;2024-03-22T03:49:15;40.85;;;20.48;;
23121;SDS011;11730;51.248;22.534;2024-03-22T03:51:41;29.48;;;17.63;;
23121;SDS011;11730;51.248;22.534;2024-03-22T03:54:07;36.80;;;20.13;;
23121;SDS011;11730;51.248;22.534;2024-03-22T03:56:33;40.67;;;20.67;;
23121;SDS011;11730;51.248;22.534;2024-03-22T03:58:59;35.63;;;20.05;;
23121;SDS011;11730;51.248;22.534;2024-03-22T04:01:25;39.15;;;20.73;;
23121;SDS011;11730;51.248;22.534;2024-03-22T04:03:52;36.90;;;20.65;;
23121;SDS011;11730;51.248;22.534;2024-03-22T04:06:18;37.95;;;20.63;;
23121;SDS011;11730;51.248;22.534;2024-03-22T04:08:44;41.88;;;21.50;;
23121;SDS011;11730;51.248;22.534;2024-03-22T04:11:10;37.63;;;21.33;;
23121;SDS011;11730;51.248;22.534;2024-03-22T04:13:37;40.25;;;21.13;;
23121;SDS011;11730;51.248;22.534;2024-03-22T04:16:03;39.60;;;21.38;;
23121;SDS011;11730;51.248;22.534;2024-03-22T04:18:30;43.17;;;21.83;;
23121;SDS011;11730;51.248;22.534;2024-03-22T04:20:57;38.58;;;21.92;;
23121;SDS011;11730;51.248;22.534;2024-03-22T04:23:24;44.58;;;22.80;;
23121;SDS011;11730;51.248;22.534;2024-03-22T04:25:52;41.50;;;22.55;;
23121;SDS011;11730;51.248;22.534;2024-03-22T04:28:21;44.58;;;22.48;;
23121;SDS011;11730;51.248;22.534;2024-03-22T04:31:21;40.17;;;20.67;;
23121;SDS011;11730;51.248;22.534;2024-03-22T04:33:41;44.28;;;22.63;;
23121;SDS011;11730;51.248;22.534;2024-03-22T04:36:07;40.55;;;22.52;;
23121;SDS011;11730;51.248;22.534;2024-03-22T04:38:35;42.92;;;22.23;;
23121;SDS011;11730;51.248;22.534;2024-03-22T04:41:01;43.03;;;22.98;;
23121;SDS011;11730;51.248;22.534;2024-03-22T04:43:28;44.38;;;22.88;;
23121;SDS011;11730;51.248;22.534;2024-03-22T04:45:54;42.47;;;22.50;;
23121;SDS011;11730;51.248;22.534;2024-03-22T04:48:20;43.17;;;23.02;;
23121;SDS011;11730;51.248;22.534;2024-03-22T04:50:50;44.70;;;23.98;;
23121;SDS011;11730;51.248;22.534;2024-03-22T04:53:18;54.67;;;24.10;;
23121;SDS011;11730;51.248;22.534;2024-03-22T04:55:46;47.88;;;24.35;;
23121;SDS011;11730;51.248;22.534;2024-03-22T04:58:13;39.90;;;23.38;;
23121;SDS011;11730;51.248;22.534;2024-03-22T05:00:40;40.97;;;22.95;;
23121;SDS011;11730;51.248;22.534;2024-03-22T05:03:08;48.45;;;23.77;;
23121;SDS011;11730;51.248;22.534;2024-03-22T05:05:34;42.67;;;24.15;;
23121;SDS011;11730;51.248;22.534;2024-03-22T05:08:01;47.42;;;22.73;;
23121;SDS011;11730;51.248;22.534;2024-03-22T05:10:28;45.92;;;24.05;;
23121;SDS011;11730;51.248;22.534;2024-03-22T05:12:55;48.85;;;25.25;;
23121;SDS011;11730;51.248;22.534;2024-03-22T05:15:21;49.92;;;24.30;;
23121;SDS011;11730;51.248;22.534;2024-03-22T05:17:48;48.30;;;24.73;;
23121;SDS011;11730;51.248;22.534;2024-03-22T05:20:14;49.47;;;24.42;;
23121;SDS011;11730;51.248;22.534;2024-03-22T05:22:41;55.30;;;27.42;;
23121;SDS011;11730;51.248;22.534;2024-03-22T05:25:08;46.53;;;26.05;;
23121;SDS011;11730;51.248;22.534;2024-03-22T05:27:35;51.90;;;25.55;;
23121;SDS011;11730;51.248;22.534;2024-03-22T05:30:02;54.13;;;26.73;;
23121;SDS011;11730;51.248;22.534;2024-03-22T05:32:31;45.80;;;23.92;;
23121;SDS011;11730;51.248;22.534;2024-03-22T05:34:57;46.90;;;25.98;;
23121;SDS011;11730;51.248;22.534;2024-03-22T05:37:24;50.40;;;25.83;;
23121;SDS011;11730;51.248;22.534;2024-03-22T05:39:50;57.17;;;28.90;;
23121;SDS011;11730;51.248;22.534;2024-03-22T05:42:17;54.00;;;26.88;;
23121;SDS011;11730;51.248;22.534;2024-03-22T05:44:44;52.53;;;28.63;;
23121;SDS011;11730;51.248;22.534;2024-03-22T05:47:10;58.90;;;27.92;;
23121;SDS011;11730;51.248;22.534;2024-03-22T05:49:36;47.17;;;25.48;;
23121;SDS011;11730;51.248;22.534;2024-03-22T05:52:02;58.08;;;27.90;;
23121;SDS011;11730;51.248;22.534;2024-03-22T05:54:29;54.97;;;27.38;;
23121;SDS011;11730;51.248;22.534;2024-03-22T05:56:55;58.25;;;28.95;;
23121;SDS011;11730;51.248;22.534;2024-03-22T05:59:21;58.05;;;28.35;;
23121;SDS011;11730;51.248;22.534;2024-03-22T06:01:47;78.18;;;28.30;;
23121;SDS011;11730;51.248;22.534;2024-03-22T06:04:14;49.75;;;27.50;;
23121;SDS011;11730;51.248;22.534;2024-03-22T06:06:40;58.42;;;27.88;;
23121;SDS011;11730;51.248;22.534;2024-03-22T06:09:06;59.65;;;28.65;;
23121;SDS011;11730;51.248;22.534;2024-03-22T06:11:36;93.72;;;45.53;;
23121;SDS011;11730;51.248;22.534;2024-03-22T06:14:02;57.42;;;28.35;;
23121;SDS011;11730;51.248;22.534;2024-03-22T06:16:29;65.13;;;30.38;;
23121;SDS011;11730;51.248;22.534;2024-03-22T06:18:55;64.32;;;31.08;;
23121;SDS011;11730;51.248;22.534;2024-03-22T06:21:22;67.45;;;30.65;;
23121;SDS011;11730;51.248;22.534;2024-03-22T06:23:50;63.13;;;31.23;;
23121;SDS011;11730;51.248;22.534;2024-03-22T06:26:17;61.95;;;30.40;;
23121;SDS011;11730;51.248;22.534;2024-03-22T06:28:43;62.47;;;30.33;;
23121;SDS011;11730;51.248;22.534;2024-03-22T06:31:09;61.03;;;29.05;;
23121;SDS011;11730;51.248;22.534;2024-03-22T06:33:36;65.75;;;30.00;;
23121;SDS011;11730;51.248;22.534;2024-03-22T06:36:02;67.18;;;31.25;;
23121;SDS011;11730;51.248;22.534;2024-03-22T06:38:29;68.13;;;30.35;;
23121;SDS011;11730;51.248;22.534;2024-03-22T06:40:55;65.25;;;30.33;;
23121;SDS011;11730;51.248;22.534;2024-03-22T06:43:21;61.95;;;32.40;;
23121;SDS011;11730;51.248;22.534;2024-03-22T06:45:47;62.20;;;30.88;;
23121;SDS011;11730;51.248;22.534;2024-03-22T06:48:13;68.45;;;32.03;;
23121;SDS011;11730;51.248;22.534;2024-03-22T06:50:41;63.85;;;31.10;;
23121;SDS011;11730;51.248;22.534;2024-03-22T06:53:07;65.68;;;30.85;;
23121;SDS011;11730;51.248;22.534;2024-03-22T06:55:35;60.13;;;29.45;;
23121;SDS011;11730;51.248;22.534;2024-03-22T06:58:01;68.35;;;31.00;;
23121;SDS011;11730;51.248;22.534;2024-03-22T07:00:28;61.17;;;29.63;;
23121;SDS011;11730;51.248;22.534;2024-03-22T07:02:54;64.13;;;30.73;;
23121;SDS011;11730;51.248;22.534;2024-03-22T07:05:21;67.13;;;32.15;;
23121;SDS011;11730;51.248;22.534;2024-03-22T07:07:47;62.08;;;30.45;;
23121;SDS011;11730;51.248;22.534;2024-03-22T07:10:16;65.75;;;33.28;;
23121;SDS011;11730;51.248;22.534;2024-03-22T07:12:42;65.10;;;31.40;;
23121;SDS011;11730;51.248;22.534;2024-03-22T07:15:08;58.50;;;30.63;;
23121;SDS011;11730;51.248;22.534;2024-03-22T07:17:34;66.60;;;31.67;;
23121;SDS011;11730;51.248;22.534;2024-03-22T07:20:00;62.00;;;31.02;;
23121;SDS011;11730;51.248;22.534;2024-03-22T07:22:28;66.35;;;32.03;;
23121;SDS011;11730;51.248;22.534;2024-03-22T07:24:54;57.67;;;30.52;;
23121;SDS011;11730;51.248;22.534;2024-03-22T07:27:20;56.00;;;29.08;;
23121;SDS011;11730;51.248;22.534;2024-03-22T07:29:47;61.83;;;29.52;;
23121;SDS011;11730;51.248;22.534;2024-03-22T07:32:13;57.40;;;29.75;;
23121;SDS011;11730;51.248;22.534;2024-03-22T07:34:39;59.72;;;31.88;;
23121;SDS011;11730;51.248;22.534;2024-03-22T07:37:05;61.97;;;30.10;;
23121;SDS011;11730;51.248;22.534;2024-03-22T07:39:31;62.00;;;30.80;;
23121;SDS011;11730;51.248;22.534;2024-03-22T07:41:57;55.63;;;30.10;;
23121;SDS011;11730;51.248;22.534;2024-03-22T07:44:24;52.53;;;28.77;;
23121;SDS011;11730;51.248;22.534;2024-03-22T07:46:51;59.78;;;31.65;;
23121;SDS011;11730;51.248;22.534;2024-03-22T07:49:17;51.13;;;28.85;;
23121;SDS011;11730;51.248;22.534;2024-03-22T07:51:44;53.20;;;28.98;;
23121;SDS011;11730;51.248;22.534;2024-03-22T07:54:09;54.47;;;29.60;;
23121;SDS011;11730;51.248;22.534;2024-03-22T07:56:36;55.63;;;30.98;;
23121;SDS011;11730;51.248;22.534;2024-03-22T07:59:02;51.45;;;29.38;;
23121;SDS011;11730;51.248;22.534;2024-03-22T08:01:28;56.67;;;30.08;;
23121;SDS011;11730;51.248;22.534;2024-03-22T08:03:54;57.28;;;29.60;;
23121;SDS011;11730;51.248;22.534;2024-03-22T08:06:20;62.60;;;30.17;;
23121;SDS011;11730;51.248;22.534;2024-03-22T08:08:46;49.20;;;28.80;;
23121;SDS011;11730;51.248;22.534;2024-03-22T08:11:12;57.05;;;30.40;;
23121;SDS011;11730;51.248;22.534;2024-03-22T08:13:39;54.55;;;29.30;;
23121;SDS011;11730;51.248;22.534;2024-03-22T08:16:05;50.10;;;27.17;;
23121;SDS011;11730;51.248;22.534;2024-03-22T08:18:31;50.85;;;28.17;;
23121;SDS011;11730;51.248;22.534;2024-03-22T08:21:01;54.45;;;27.75;;
23121;SDS011;11730;51.248;22.534;2024-03-22T08:23:27;48.70;;;27.25;;
23121;SDS011;11730;51.248;22.534;2024-03-22T08:25:54;50.20;;;29.20;;
23121;SDS011;11730;51.248;22.534;2024-03-22T08:28:22;51.80;;;28.55;;
23121;SDS011;11730;51.248;22.534;2024-03-22T08:30:49;49.80;;;28.30;;
23121;SDS011;11730;51.248;22.534;2024-03-22T08:33:15;49.38;;;25.75;;
23121;SDS011;11730;51.248;22.534;2024-03-22T08:35:41;51.35;;;27.35;;
23121;SDS011;11730;51.248;22.534;2024-03-22T08:38:07;46.08;;;27.02;;
23121;SDS011;11730;51.248;22.534;2024-03-22T08:40:38;50.88;;;26.40;;
23121;SDS011;11730;51.248;22.534;2024-03-22T08:43:05;49.13;;;27.23;;
23121;SDS011;11730;51.248;22.534;2024-03-22T08:45:32;51.42;;;27.00;;
23121;SDS011;11730;51.248;22.534;2024-03-22T08:47:59;50.83;;;27.30;;
23121;SDS011;11730;51.248;22.534;2024-03-22T08:50:25;49.00;;;27.38;;
23121;SDS011;11730;51.248;22.534;2024-03-22T08:52:51;53.95;;;25.80;;
23121;SDS011;11730;51.248;22.534;2024-03-22T08:55:18;50.92;;;26.67;;
23121;SDS011;11730;51.248;22.534;2024-03-22T08:57:44;53.63;;;27.30;;
23121;SDS011;11730;51.248;22.534;2024-03-22T09:00:11;58.55;;;27.50;;
23121;SDS011;11730;51.248;22.534;2024-03-22T09:02:37;56.95;;;28.85;;
23121;SDS011;11730;51.248;22.534;2024-03-22T09:05:06;55.15;;;27.30;;
23121;SDS011;11730;51.248;22.534;2024-03-22T09:07:33;59.30;;;28.10;;
23121;SDS011;11730;51.248;22.534;2024-03-22T09:10:00;49.28;;;27.27;;
23121;SDS011;11730;51.248;22.534;2024-03-22T09:12:26;51.67;;;27.52;;
23121;SDS011;11730;51.248;22.534;2024-03-22T09:14:53;54.83;;;26.85;;
23121;SDS011;11730;51.248;22.534;2024-03-22T09:17:19;59.47;;;28.35;;
23121;SDS011;11730;51.248;22.534;2024-03-22T09:19:45;63.92;;;32.10;;
23121;SDS011;11730;51.248;22.534;2024-03-22T09:22:11;57.13;;;29.40;;
23121;SDS011;11730;51.248;22.534;2024-03-22T09:24:38;58.35;;;29.85;;
23121;SDS011;11730;51.248;22.534;2024-03-22T09:27:04;58.30;;;29.10;;
23121;SDS011;11730;51.248;22.534;2024-03-22T09:29:34;54.75;;;29.85;;
23121;SDS011;11730;51.248;22.534;2024-03-22T09:32:01;60.13;;;29.92;;
23121;SDS011;11730;51.248;22.534;2024-03-22T09:34:27;57.38;;;29.52;;
23121;SDS011;11730;51.248;22.534;2024-03-22T09:36:55;64.30;;;30.92;;
23121;SDS011;11730;51.248;22.534;2024-03-22T09:39:22;57.97;;;30.77;;
23121;SDS011;11730;51.248;22.534;2024-03-22T09:41:48;60.53;;;30.45;;
23121;SDS011;11730;51.248;22.534;2024-03-22T09:44:17;58.88;;;29.48;;
23121;SDS011;11730;51.248;22.534;2024-03-22T09:46:46;65.80;;;31.63;;
23121;SDS011;11730;51.248;22.534;2024-03-22T09:49:13;66.13;;;32.95;;
23121;SDS011;11730;51.248;22.534;2024-03-22T09:51:39;54.47;;;29.20;;
23121;SDS011;11730;51.248;22.534;2024-03-22T09:54:08;61.15;;;33.00;;
23121;SDS011;11730;51.248;22.534;2024-03-22T09:56:35;60.03;;;30.83;;
23121;SDS011;11730;51.248;22.534;2024-03-22T09:59:05;57.00;;;30.15;;
23121;SDS011;11730;51.248;22.534;2024-03-22T10:01:34;54.67;;;28.65;;
23121;SDS011;11730;51.248;22.534;2024-03-22T10:04:00;56.85;;;30.25;;
23121;SDS011;11730;51.248;22.534;2024-03-22T10:06:26;58.60;;;28.75;;
23121;SDS011;11730;51.248;22.534;2024-03-22T10:08:52;48.88;;;27.13;;
23121;SDS011;11730;51.248;22.534;2024-03-22T10:11:18;43.38;;;24.88;;
23121;SDS011;11730;51.248;22.534;2024-03-22T10:13:45;34.63;;;21.77;;
23121;SDS011;11730;51.248;22.534;2024-03-22T10:16:12;35.78;;;21.23;;
23121;SDS011;11730;51.248;22.534;2024-03-22T10:18:38;33.92;;;21.60;;
23121;SDS011;11730;51.248;22.534;2024-03-22T10:21:04;36.80;;;21.77;;
23121;SDS011;11730;51.248;22.534;2024-03-22T10:23:31;32.30;;;19.17;;
23121;SDS011;11730;51.248;22.534;2024-03-22T10:25:57;30.20;;;16.27;;
23121;SDS011;11730;51.248;22.534;2024-03-22T10:28:27;28.15;;;18.55;;
23121;SDS011;11730;51.248;22.534;2024-03-22T10:30:53;27.20;;;16.98;;
23121;SDS011;11730;51.248;22.534;2024-03-22T10:33:20;27.02;;;16.65;;
23121;SDS011;11730;51.248;22.534;2024-03-22T10:35:53;24.80;;;14.68;;
23121;SDS011;11730;51.248;22.534;2024-03-22T10:38:19;75.60;;;48.92;;
23121;SDS011;11730;51.248;22.534;2024-03-22T10:40:46;19.27;;;13.63;;
23121;SDS011;11730;51.248;22.534;2024-03-22T10:43:16;19.95;;;12.73;;
23121;SDS011;11730;51.248;22.534;2024-03-22T10:45:43;18.25;;;11.27;;
23121;SDS011;11730;51.248;22.534;2024-03-22T10:48:13;17.75;;;12.45;;
23121;SDS011;11730;51.248;22.534;2024-03-22T10:50:43;16.08;;;12.23;;
23121;SDS011;11730;51.248;22.534;2024-03-22T10:53:11;20.08;;;13.45;;
23121;SDS011;11730;51.248;22.534;2024-03-22T10:55:46;15.13;;;9.75;;
23121;SDS011;11730;51.248;22.534;2024-03-22T10:58:17;13.32;;;8.45;;
23121;SDS011;11730;51.248;22.534;2024-03-22T11:00:47;12.65;;;8.85;;
23121;SDS011;11730;51.248;22.534;2024-03-22T11:03:19;13.73;;;7.35;;
23121;SDS011;11730;51.248;22.534;2024-03-22T11:05:49;11.88;;;8.77;;
23121;SDS011;11730;51.248;22.534;2024-03-22T11:10:57;12.85;;;7.68;;
23121;SDS011;11730;51.248;22.534;2024-03-22T11:13:23;13.38;;;7.57;;
23121;SDS011;11730;51.248;22.534;2024-03-22T11:15:49;17.42;;;8.65;;
23121;SDS011;11730;51.248;22.534;2024-03-22T11:18:16;12.10;;;8.73;;
23121;SDS011;11730;51.248;22.534;2024-03-22T11:20:42;13.02;;;8.15;;
23121;SDS011;11730;51.248;22.534;2024-03-22T11:23:10;11.98;;;8.48;;
23121;SDS011;11730;51.248;22.534;2024-03-22T11:25:36;13.45;;;8.77;;
23121;SDS011;11730;51.248;22.534;2024-03-22T11:28:02;12.15;;;8.43;;
23121;SDS011;11730;51.248;22.534;2024-03-22T11:30:29;12.63;;;8.52;;
23121;SDS011;11730;51.248;22.534;2024-03-22T11:32:56;11.63;;;8.40;;
23121;SDS011;11730;51.248;22.534;2024-03-22T11:35:22;12.02;;;8.27;;
23121;SDS011;11730;51.248;22.534;2024-03-22T11:37:49;13.23;;;8.50;;
23121;SDS011;11730;51.248;22.534;2024-03-22T11:40:16;15.02;;;9.35;;
23121;SDS011;11730;51.248;22.534;2024-03-22T11:42:46;13.82;;;9.13;;
23121;SDS011;11730;51.248;22.534;2024-03-22T11:45:15;15.95;;;10.60;;
23121;SDS011;11730;51.248;22.534;2024-03-22T11:47:46;13.52;;;9.00;;
23121;SDS011;11730;51.248;22.534;2024-03-22T11:50:13;15.05;;;9.20;;
23121;SDS011;11730;51.248;22.534;2024-03-22T11:52:40;15.35;;;9.90;;
23121;SDS011;11730;51.248;22.534;2024-03-22T11:55:07;16.13;;;9.43;;
23121;SDS011;11730;51.248;22.534;2024-03-22T11:57:33;14.57;;;9.82;;
23121;SDS011;11730;51.248;22.534;2024-03-22T11:59:59;14.38;;;9.38;;
23121;SDS011;11730;51.248;22.534;2024-03-22T12:02:26;13.00;;;9.20;;
23121;SDS011;11730;51.248;22.534;2024-03-22T12:04:53;14.10;;;9.20;;
23121;SDS011;11730;51.248;22.534;2024-03-22T12:07:19;13.45;;;9.30;;
23121;SDS011;11730;51.248;22.534;2024-03-22T12:09:45;15.45;;;10.23;;
23121;SDS011;11730;51.248;22.534;2024-03-22T12:12:12;15.25;;;10.00;;
23121;SDS011;11730;51.248;22.534;2024-03-22T12:14:39;13.07;;;9.95;;
23121;SDS011;11730;51.248;22.534;2024-03-22T12:17:05;185.10;;;105.05;;
23121;SDS011;11730;51.248;22.534;2024-03-22T12:19:32;15.23;;;10.65;;
23121;SDS011;11730;51.248;22.534;2024-03-22T12:21:58;13.63;;;9.80;;
23121;SDS011;11730;51.248;22.534;2024-03-22T12:24:26;16.63;;;10.40;;
23121;SDS011;11730;51.248;22.534;2024-03-22T12:26:52;16.27;;;10.77;;
23121;SDS011;11730;51.248;22.534;2024-03-22T12:29:19;22.90;;;13.70;;
23121;SDS011;11730;51.248;22.534;2024-03-22T12:31:45;15.55;;;10.10;;
23121;SDS011;11730;51.248;22.534;2024-03-22T12:34:11;19.08;;;10.38;;
23121;SDS011;11730;51.248;22.534;2024-03-22T12:36:37;13.98;;;9.70;;
23121;SDS011;11730;51.248;22.534;2024-03-22T12:39:03;14.55;;;9.52;;
23121;SDS011;11730;51.248;22.534;2024-03-22T12:41:29;14.73;;;9.68;;
23121;SDS011;11730;51.248;22.534;2024-03-22T12:43:57;16.88;;;10.18;;
23121;SDS011;11730;51.248;22.534;2024-03-22T12:46:23;16.25;;;10.23;;
23121;SDS011;11730;51.248;22.534;2024-03-22T12:48:50;17.40;;;11.90;;
23121;SDS011;11730;51.248;22.534;2024-03-22T12:51:16;16.73;;;11.25;;
23121;SDS011;11730;51.248;22.534;2024-03-22T12:53:43;19.40;;;11.15;;
23121;SDS011;11730;51.248;22.534;2024-03-22T12:56:09;17.55;;;10.73;;
23121;SDS011;11730;51.248;22.534;2024-03-22T12:58:36;17.67;;;11.77;;
23121;SDS011;11730;51.248;22.534;2024-03-22T13:01:03;20.95;;;12.60;;
23121;SDS011;11730;51.248;22.534;2024-03-22T13:03:32;17.13;;;12.15;;
23121;SDS011;11730;51.248;22.534;2024-03-22T13:05:58;17.55;;;11.27;;
23121;SDS011;11730;51.248;22.534;2024-03-22T13:08:24;76.57;;;49.22;;
23121;SDS011;11730;51.248;22.534;2024-03-22T13:10:50;21.95;;;12.95;;
23121;SDS011;11730;51.248;22.534;2024-03-22T13:13:17;19.08;;;11.45;;
23121;SDS011;11730;51.248;22.534;2024-03-22T13:15:44;20.25;;;11.63;;
23121;SDS011;11730;51.248;22.534;2024-03-22T13:18:10;18.88;;;12.13;;
23121;SDS011;11730;51.248;22.534;2024-03-22T13:20:36;15.95;;;10.75;;
23121;SDS011;11730;51.248;22.534;2024-03-22T13:23:02;17.77;;;12.15;;
23121;SDS011;11730;51.248;22.534;2024-03-22T13:25:28;20.95;;;12.38;;
23121;SDS011;11730;51.248;22.534;2024-03-22T13:27:55;19.48;;;11.63;;
23121;SDS011;11730;51.248;22.534;2024-03-22T13:30:21;19.00;;;11.05;;
23121;SDS011;11730;51.248;22.534;2024-03-22T13:32:47;17.85;;;12.27;;
23121;SDS011;11730;51.248;22.534;2024-03-22T13:35:13;18.52;;;11.98;;
23121;SDS011;11730;51.248;22.534;2024-03-22T13:37:40;18.88;;;11.95;;
23121;SDS011;11730;51.248;22.534;2024-03-22T13:40:07;17.58;;;11.85;;
23121;SDS011;11730;51.248;22.534;2024-03-22T13:42:34;18.25;;;11.23;;
23121;SDS011;11730;51.248;22.534;2024-03-22T13:45:00;17.92;;;11.32;;
23121;SDS011;11730;51.248;22.534;2024-03-22T13:47:26;21.40;;;11.65;;
23121;SDS011;11730;51.248;22.534;2024-03-22T13:49:55;17.90;;;11.07;;
23121;SDS011;11730;51.248;22.534;2024-03-22T13:52:21;20.85;;;11.77;;
23121;SDS011;11730;51.248;22.534;2024-03-22T13:54:48;15.63;;;10.70;;
23121;SDS011;11730;51.248;22.534;2024-03-22T13:57:15;18.75;;;11.35;;
23121;SDS011;11730;51.248;22.534;2024-03-22T13:59:41;17.80;;;11.07;;
23121;SDS011;11730;51.248;22.534;2024-03-22T14:02:07;13.95;;;10.05;;
23121;SDS011;11730;51.248;22.534;2024-03-22T14:04:36;15.07;;;9.73;;
23121;SDS011;11730;51.248;22.534;2024-03-22T14:07:02;19.33;;;11.27;;
23121;SDS011;11730;51.248;22.534;2024-03-22T14:09:33;15.55;;;10.35;;
23121;SDS011;11730;51.248;22.534;2024-03-22T14:12:00;20.33;;;10.07;;